Terminal Aerodrome Forecast
Issued by NWS Knoxville/Tri Cities, TN

Home | Current Version | Previous Version | Text Only | Print | Product List | Glossary On
Versions: 1 2 3 4 5 6 7 8 9 10 11 12 13 14 15 16 17 18 19 20 21 22 23 24 25 26 27 28 29 30 31 32 33 34 35 36 37 38 39 40 41 42 43 44 45
000
FTUS44 KMRX 012321
TAFTYS
TAF
KTYS 012321Z 0200/0224 22010KT P6SM VCSH SCT040 OVC100
     FM020500 23007KT P6SM SCT025 BKN080
     FM020900 22006KT 6SM BR VCTS BKN025CB
     FM021600 23010KT P6SM VCTS SCT025CB BKN100
     FM022100 23012G22KT 4SM -TSRA BKN030CB OVC060=

USA.gov is the U.S. government's official web portal to all federal, state and local government web resources and services.